Time;durP1;ratioP1;P1;durP2;ratioP2;P2;SDS_P1;SDS_P2;PMS_P1;PMS_P2;Temp;Humidity;BMP_temperature;BMP_pressure;BME280_temperature;BME280_humidity;BME280_pressure;Samples;Min_cycle;Max_cycle;Signal;HPM_P1;HPM_P2
2023/07/24 00:00:23;;;;;;;11.07;5.30;;;;;;;19.67;nan;100470.00;5023639;28;20121;-70
2023/07/24 00:02:48;;;;;;;9.80;5.35;;;;;;;19.61;nan;100473.84;5023059;28;20061;-70
2023/07/24 00:05:13;;;;;;;10.23;5.13;;;;;;;19.63;nan;100474.31;5015129;28;20041;-71
2023/07/24 00:07:39;;;;;;;8.15;5.53;;;;;;;19.58;nan;100466.38;5018131;28;20040;-71
2023/07/24 00:10:05;;;;;;;9.30;4.68;;;;;;;19.47;nan;100454.22;5014848;28;20029;-71
2023/07/24 00:12:30;;;;;;;6.05;4.53;;;;;;;19.51;nan;100477.41;5012288;28;20029;-71
2023/07/24 00:14:56;;;;;;;13.02;5.30;;;;;;;19.36;nan;100460.72;5018440;28;20021;-71
2023/07/24 00:17:21;;;;;;;7.63;5.15;;;;;;;19.27;nan;100453.31;5015416;28;20053;-69
2023/07/24 00:19:46;;;;;;;9.27;5.40;;;;;;;19.19;nan;100445.94;5016152;28;20116;-71
2023/07/24 00:22:12;;;;;;;7.43;4.88;;;;;;;19.22;nan;100465.91;5012532;28;20030;-71
2023/07/24 00:24:37;;;;;;;9.82;4.97;;;;;;;19.10;nan;100456.41;5015820;28;20085;-70
2023/07/24 00:27:03;;;;;;;9.02;5.03;;;;;;;19.10;nan;100461.75;5030897;28;20026;-70
2023/07/24 00:29:28;;;;;;;15.77;5.53;;;;;;;19.09;nan;100464.72;5022426;28;20443;-71
2023/07/24 00:31:54;;;;;;;12.30;5.50;;;;;;;18.93;nan;100453.34;5015817;28;20044;-70
2023/07/24 00:34:19;;;;;;;11.40;5.45;;;;;;;18.92;nan;100463.22;5019740;28;20033;-73
2023/07/24 00:36:45;;;;;;;10.48;5.20;;;;;;;18.90;nan;100465.38;5019673;28;20031;-74
2023/07/24 00:39:10;;;;;;;8.55;5.40;;;;;;;18.77;nan;100447.34;5015899;28;20112;-73
2023/07/24 00:41:35;;;;;;;8.30;4.63;;;;;;;18.83;nan;100453.44;5014990;28;20047;-73
2023/07/24 00:44:01;;;;;;;9.75;4.75;;;;;;;18.81;nan;100460.91;5014308;28;20049;-75
2023/07/24 00:46:31;;;;;;;10.98;4.78;;;;;;;18.56;nan;100427.19;5016831;28;20026;-74
2023/07/24 00:48:58;;;;;;;10.38;5.40;;;;;;;18.75;nan;100460.13;5017688;28;20080;-74
2023/07/24 00:51:23;;;;;;;7.68;4.85;;;;;;;18.75;nan;100451.31;5015061;28;20029;-74
2023/07/24 00:53:49;;;;;;;8.68;4.97;;;;;;;18.71;nan;100451.88;5013208;28;20021;-74
2023/07/24 00:56:14;;;;;;;10.00;5.38;;;;;;;18.70;nan;100449.50;5016970;28;20064;-74
2023/07/24 00:58:40;;;;;;;8.57;4.80;;;;;;;18.61;nan;100446.63;5018723;28;20088;-73
2023/07/24 01:01:05;;;;;;;7.88;4.70;;;;;;;18.54;nan;100448.00;5013299;28;20022;-72
2023/07/24 01:03:35;;;;;;;12.35;5.15;;;;;;;18.61;nan;100459.16;5013373;28;20956;-71
2023/07/24 01:06:04;;;;;;;5.88;4.72;;;;;;;18.61;nan;100456.50;5015349;28;20112;-74
2023/07/24 01:08:29;;;;;;;7.47;4.70;;;;;;;18.58;nan;100455.19;5015808;28;20476;-73
2023/07/24 01:10:59;;;;;;;8.70;4.57;;;;;;;18.60;nan;100463.69;5012646;28;20053;-73
2023/07/24 01:13:28;;;;;;;7.75;4.72;;;;;;;18.40;nan;100443.28;5015826;28;20026;-73
2023/07/24 01:16:17;;;;;;;8.60;4.97;;;;;;;18.45;nan;100469.91;5012405;28;20048;-73
2023/07/24 01:18:44;;;;;;;7.07;5.23;;;;;;;18.31;nan;100460.91;5014151;28;20422;-71
2023/07/24 01:21:12;;;;;;;12.25;5.05;;;;;;;18.23;nan;100464.19;5014538;28;20282;-72
2023/07/24 01:23:50;;;;;;;8.15;5.10;;;;;;;18.14;nan;100465.81;5015267;28;20488;-71
2023/07/24 01:26:16;;;;;;;8.23;5.47;;;;;;;17.93;nan;100441.13;5014910;28;20109;-72
2023/07/24 01:28:42;;;;;;;8.25;5.00;;;;;;;17.96;nan;100452.03;5013811;28;20753;-74
2023/07/24 01:31:07;;;;;;;9.50;5.38;;;;;;;17.92;nan;100442.97;5012183;28;20100;-71
2023/07/24 01:33:35;;;;;;;12.35;5.78;;;;;;;18.00;nan;100447.72;5014816;28;20056;-72
2023/07/24 01:36:03;;;;;;;13.20;5.55;;;;;;;17.93;nan;100444.56;5020740;28;20045;-71
2023/07/24 01:38:31;;;;;;;8.18;5.00;;;;;;;17.95;nan;100449.63;5015704;28;20030;-73
2023/07/24 01:40:57;;;;;;;10.32;4.80;;;;;;;17.95;nan;100452.28;4999807;28;20380;-73
2023/07/24 01:43:26;;;;;;;7.65;5.20;;;;;;;17.97;nan;100455.50;5018698;28;20057;-73
2023/07/24 01:45:51;;;;;;;8.07;5.50;;;;;;;17.84;nan;100433.69;5021903;28;20026;-73
2023/07/24 01:48:16;;;;;;;11.50;5.32;;;;;;;17.83;nan;100428.63;5020516;28;20445;-74
2023/07/24 01:50:42;;;;;;;14.73;5.50;;;;;;;17.84;nan;100438.22;5015655;28;20022;-73
2023/07/24 01:53:07;;;;;;;9.07;4.88;;;;;;;17.65;nan;100424.69;5019822;28;20059;-73
2023/07/24 01:55:32;;;;;;;11.88;5.03;;;;;;;17.68;nan;100434.78;5017563;28;20034;-73
2023/07/24 01:57:58;;;;;;;7.32;4.90;;;;;;;17.76;nan;100439.53;5018716;28;20030;-73
2023/07/24 02:00:23;;;;;;;8.13;4.75;;;;;;;17.44;nan;100402.63;5018224;28;20073;-72
2023/07/24 02:02:48;;;;;;;9.35;5.13;;;;;;;17.67;nan;100440.38;5018293;28;20172;-72
2023/07/24 02:05:14;;;;;;;9.85;5.38;;;;;;;17.63;nan;100437.47;5020546;28;20021;-73
2023/07/24 02:07:39;;;;;;;10.73;4.70;;;;;;;17.59;nan;100439.84;5017506;28;20594;-72
2023/07/24 02:10:05;;;;;;;14.47;5.77;;;;;;;17.64;nan;100444.38;5019244;28;20366;-73
2023/07/24 02:12:30;;;;;;;8.30;5.63;;;;;;;17.40;nan;100420.22;5018969;28;20783;-72
2023/07/24 02:14:57;;;;;;;8.98;5.47;;;;;;;17.34;nan;100432.75;5017821;28;20416;-72
2023/07/24 02:17:23;;;;;;;7.13;4.85;;;;;;;17.30;nan;100423.69;5019429;28;20030;-73
2023/07/24 02:19:48;;;;;;;11.23;5.70;;;;;;;17.27;nan;100423.44;5034096;28;20029;-72
2023/07/24 02:22:13;;;;;;;10.18;5.32;;;;;;;17.38;nan;100427.66;5017893;28;20127;-73
2023/07/24 02:24:39;;;;;;;9.98;5.07;;;;;;;17.39;nan;100429.28;5023830;28;20025;-73
2023/07/24 02:27:05;;;;;;;9.45;5.20;;;;;;;17.42;nan;100424.19;5019791;28;20510;-71
2023/07/24 02:29:31;;;;;;;14.20;5.75;;;;;;;17.38;nan;100422.34;5020030;28;20120;-73
2023/07/24 02:31:57;;;;;;;10.35;5.50;;;;;;;17.34;nan;100434.59;5023794;28;20108;-72
2023/07/24 02:34:25;;;;;;;10.60;5.50;;;;;;;17.36;nan;100437.81;5017867;28;20659;-73
2023/07/24 02:36:52;;;;;;;7.65;5.18;;;;;;;17.25;nan;100423.69;5018663;28;20494;-72
2023/07/24 02:39:17;;;;;;;9.85;5.07;;;;;;;17.29;nan;100422.09;5017189;28;20059;-72
2023/07/24 02:41:42;;;;;;;7.28;5.10;;;;;;;17.32;nan;100434.88;5015417;28;20580;-71
2023/07/24 02:44:08;;;;;;;10.98;5.30;;;;;;;17.32;nan;100426.09;5017525;28;20446;-72
2023/07/24 02:46:33;;;;;;;10.48;5.20;;;;;;;17.28;nan;100420.50;5030518;28;20040;-72
2023/07/24 02:48:59;;;;;;;7.35;4.95;;;;;;;17.25;nan;100426.34;5016911;28;20040;-73
2023/07/24 02:51:24;;;;;;;7.07;5.00;;;;;;;17.23;nan;100420.50;5016781;28;20112;-73
2023/07/24 02:53:49;;;;;;;11.45;5.25;;;;;;;17.22;nan;100418.91;5019290;28;20040;-72
2023/07/24 02:56:15;;;;;;;8.05;4.80;;;;;;;17.22;nan;100411.72;5020807;28;20108;-72
2023/07/24 02:58:40;;;;;;;13.23;5.03;;;;;;;17.20;nan;100405.09;5017446;28;20399;-72
2023/07/24 03:01:07;;;;;;;11.00;5.38;;;;;;;17.32;nan;100426.09;5019604;28;20036;-67
2023/07/24 03:03:33;;;;;;;7.30;4.78;;;;;;;17.34;nan;100426.63;5019734;28;20047;-67
2023/07/24 03:05:59;;;;;;;13.23;5.15;;;;;;;17.32;nan;100413.56;5032526;28;20029;-67
2023/07/24 03:08:24;;;;;;;8.95;5.00;;;;;;;17.31;nan;100417.31;5024996;28;20981;-67
2023/07/24 03:10:49;;;;;;;9.75;4.88;;;;;;;17.15;nan;100387.25;5017921;28;20037;-68
2023/07/24 03:13:15;;;;;;;7.80;4.88;;;;;;;17.23;nan;100408.00;5018681;28;20057;-69
2023/07/24 03:15:40;;;;;;;9.02;4.60;;;;;;;17.18;nan;100402.69;5030731;28;20051;-68
2023/07/24 03:18:06;;;;;;;11.48;5.05;;;;;;;17.12;nan;100409.09;5016273;28;20980;-65
2023/07/24 03:20:31;;;;;;;15.07;5.20;;;;;;;17.16;nan;100412.78;5015423;28;20056;-67
2023/07/24 03:22:56;;;;;;;9.57;5.60;;;;;;;17.11;nan;100412.78;5014271;28;20033;-69
2023/07/24 03:25:22;;;;;;;13.48;4.82;;;;;;;17.07;nan;100402.97;5016125;28;20084;-68
2023/07/24 03:27:47;;;;;;;8.23;4.70;;;;;;;17.19;nan;100416.78;5016520;28;20025;-67
2023/07/24 03:30:13;;;;;;;15.15;5.00;;;;;;;17.12;nan;100411.75;5013341;28;20029;-67
2023/07/24 03:32:38;;;;;;;8.45;5.50;;;;;;;17.07;nan;100414.41;5017087;28;20722;-68
2023/07/24 03:35:05;;;;;;;11.77;5.15;;;;;;;17.10;nan;100407.75;5016605;28;20041;-68
2023/07/24 03:37:31;;;;;;;9.88;5.30;;;;;;;17.04;nan;100409.63;5016629;28;20025;-73
2023/07/24 03:39:56;;;;;;;8.63;4.70;;;;;;;16.98;nan;100400.06;5020339;28;20039;-73
2023/07/24 03:42:26;;;;;;;11.77;4.97;;;;;;;17.14;nan;100412.28;5021743;28;20034;-74
2023/07/24 03:44:52;;;;;;;7.25;4.55;;;;;;;17.03;nan;100384.09;5021984;28;20049;-72
2023/07/24 03:47:18;;;;;;;10.02;4.53;;;;;;;17.10;nan;100395.25;5016288;28;20017;-72
2023/07/24 03:49:43;;;;;;;9.23;4.40;;;;;;;17.12;nan;100400.28;5016301;28;20033;-69
2023/07/24 03:52:08;;;;;;;10.27;4.68;;;;;;;17.13;nan;100401.91;5014970;28;20029;-70
2023/07/24 03:54:34;;;;;;;8.52;4.70;;;;;;;17.09;nan;100387.53;5016051;28;20032;-71
2023/07/24 03:56:59;;;;;;;10.13;5.43;;;;;;;17.06;nan;100386.19;5011963;28;20022;-71
2023/07/24 03:59:25;;;;;;;10.15;5.50;;;;;;;17.09;nan;100396.31;5015750;28;20898;-71
2023/07/24 04:01:50;;;;;;;8.98;5.18;;;;;;;17.08;nan;100405.34;5013413;28;20395;-71
2023/07/24 04:04:15;;;;;;;7.38;4.47;;;;;;;17.04;nan;100400.84;5017500;28;20022;-71
2023/07/24 04:06:41;;;;;;;8.68;4.78;;;;;;;17.07;nan;100398.47;5014655;28;20025;-70
2023/07/24 04:09:06;;;;;;;8.02;4.70;;;;;;;17.07;nan;100393.13;5018584;28;20026;-72
2023/07/24 04:11:32;;;;;;;14.25;4.88;;;;;;;17.11;nan;100396.84;5016723;28;20028;-74
2023/07/24 04:13:57;;;;;;;8.45;4.93;;;;;;;17.15;nan;100402.44;5016382;28;20041;-72
2023/07/24 04:16:22;;;;;;;9.43;4.78;;;;;;;17.10;nan;100387.28;5031121;28;20033;-73
2023/07/24 04:18:48;;;;;;;10.02;5.05;;;;;;;17.14;nan;100391.00;5015290;28;20024;-74
2023/07/24 04:21:13;;;;;;;15.88;4.97;;;;;;;17.26;nan;100403.19;5015932;28;20022;-73
2023/07/24 04:23:39;;;;;;;7.53;4.60;;;;;;;17.22;nan;100405.63;5014393;28;20071;-73
2023/07/24 04:26:04;;;;;;;9.00;4.70;;;;;;;17.28;nan;100414.38;5016642;28;20026;-73
2023/07/24 04:28:29;;;;;;;7.68;4.72;;;;;;;17.28;nan;100398.41;5014716;28;20026;-72
2023/07/24 04:30:55;;;;;;;8.30;5.13;;;;;;;17.33;nan;100396.53;5014132;28;20103;-72
2023/07/24 04:33:20;;;;;;;10.77;4.97;;;;;;;17.41;nan;100398.66;5033701;28;20045;-72
2023/07/24 04:35:49;;;;;;;7.65;4.68;;;;;;;17.43;nan;100401.06;5017645;28;20030;-74
2023/07/24 04:38:14;;;;;;;11.27;5.07;;;;;;;17.46;nan;100395.19;5016585;28;20026;-75
2023/07/24 04:40:43;;;;;;;8.63;5.07;;;;;;;17.47;nan;100390.66;5016121;28;20034;-74
2023/07/24 04:43:09;;;;;;;10.18;4.90;;;;;;;17.54;nan;100399.94;5013849;28;20049;-74
2023/07/24 04:45:34;;;;;;;11.18;5.95;;;;;;;17.54;nan;100391.94;5030041;28;20029;-74
2023/07/24 04:48:00;;;;;;;12.90;5.82;;;;;;;17.59;nan;100396.47;5013388;28;20030;-74
2023/07/24 04:50:25;;;;;;;11.23;5.50;;;;;;;17.49;nan;100380.53;5016791;28;20029;-75
2023/07/24 04:52:50;;;;;;;10.02;5.32;;;;;;;17.52;nan;100383.44;5016607;28;20029;-74
2023/07/24 04:55:16;;;;;;;13.73;5.30;;;;;;;17.58;nan;100394.88;5014296;28;20029;-73
2023/07/24 04:57:41;;;;;;;7.55;4.18;;;;;;;17.72;nan;100395.91;5011690;28;20091;-73
2023/07/24 05:00:07;;;;;;;11.68;4.47;;;;;;;17.67;nan;100387.94;5014692;28;20028;-73
2023/07/24 05:02:32;;;;;;;8.35;4.90;;;;;;;17.79;nan;100404.38;5029327;28;20026;-73
2023/07/24 05:04:58;;;;;;;11.80;5.07;;;;;;;17.77;nan;100395.88;5014046;28;20030;-73
2023/07/24 05:07:23;;;;;;;10.60;5.65;;;;;;;17.90;nan;100407.81;5014275;28;20025;-73
2023/07/24 05:09:48;;;;;;;8.57;5.13;;;;;;;17.97;nan;100423.53;5031269;28;20029;-74
2023/07/24 05:12:14;;;;;;;6.63;4.63;;;;;;;17.94;nan;100398.22;5015551;28;20052;-73
2023/07/24 05:14:39;;;;;;;11.50;4.97;;;;;;;18.04;nan;100419.47;5013580;28;20036;-74
2023/07/24 05:17:05;;;;;;;11.35;5.13;;;;;;;18.04;nan;100410.69;5014586;28;20024;-74
2023/07/24 05:19:30;;;;;;;12.95;5.10;;;;;;;18.13;nan;100419.72;5014778;28;20424;-74
2023/07/24 05:21:55;;;;;;;10.43;5.03;;;;;;;18.17;nan;100422.63;5018897;28;20025;-72
2023/07/24 05:24:21;;;;;;;14.43;5.55;;;;;;;18.21;nan;100426.34;5014752;28;20113;-72
2023/07/24 05:26:46;;;;;;;10.27;5.38;;;;;;;18.22;nan;100419.91;5015766;28;20599;-71
2023/07/24 05:29:11;;;;;;;9.63;5.05;;;;;;;18.32;nan;100429.75;5013495;28;20033;-73
2023/07/24 05:31:37;;;;;;;10.48;4.65;;;;;;;18.27;nan;100410.03;5017405;28;20033;-72
2023/07/24 05:34:03;;;;;;;10.43;5.47;;;;;;;18.43;nan;100415.28;5015036;28;20483;-73
2023/07/24 05:36:29;;;;;;;9.77;5.57;;;;;;;18.60;nan;100422.88;5015008;28;20030;-73
2023/07/24 05:38:54;;;;;;;7.38;5.03;;;;;;;18.72;nan;100423.31;5030450;28;20030;-72
2023/07/24 05:41:20;;;;;;;8.63;5.13;;;;;;;18.52;nan;100388.81;5016872;28;20669;-71
2023/07/24 05:43:45;;;;;;;9.82;5.03;;;;;;;18.52;nan;100378.94;5002860;28;20057;-71
2023/07/24 05:46:10;;;;;;;10.30;4.85;;;;;;;18.92;nan;100417.88;5011304;28;20033;-73
2023/07/24 05:48:36;;;;;;;9.50;4.72;;;;;;;19.03;nan;100425.78;5013254;28;20391;-73
2023/07/24 05:51:01;;;;;;;12.23;4.65;;;;;;;19.11;nan;100420.63;5014394;28;20456;-72
2023/07/24 05:53:27;;;;;;;7.50;4.38;;;;;;;19.12;nan;100416.09;5017008;28;20095;-69
2023/07/24 05:56:00;;;;;;;9.85;4.93;;;;;;;19.13;nan;100413.16;5031572;28;20040;-73
2023/07/24 05:58:26;;;;;;;8.90;4.70;;;;;;;19.26;nan;100414.34;5012859;28;20057;-70
2023/07/24 06:00:51;;;;;;;10.20;4.68;;;;;;;19.38;nan;100405.16;5014094;28;20060;-70
2023/07/24 06:03:16;;;;;;;7.07;4.43;;;;;;;19.48;nan;100405.84;5010642;28;20033;-70
2023/07/24 06:05:42;;;;;;;10.18;4.57;;;;;;;19.44;nan;100380.81;5030036;28;20067;-68
2023/07/24 06:08:08;;;;;;;10.93;4.78;;;;;;;19.69;nan;100400.31;5017350;28;20517;-68
2023/07/24 06:10:34;;;;;;;11.45;4.60;;;;;;;19.70;nan;100397.34;5016427;28;20029;-69
2023/07/24 06:12:59;;;;;;;17.02;5.15;;;;;;;19.61;nan;100366.16;5013589;28;20084;-69
2023/07/24 06:15:25;;;;;;;14.63;4.72;;;;;;;19.79;nan;100381.47;5015684;28;20395;-70
2023/07/24 06:17:50;;;;;;;11.32;4.65;;;;;;;19.97;nan;100371.91;5016069;28;20451;-70
2023/07/24 06:20:16;;;;;;;8.07;4.00;;;;;;;20.11;nan;100367.41;5017430;28;20627;-72
2023/07/24 06:22:41;;;;;;;11.25;4.28;;;;;;;20.30;nan;100386.09;5018098;28;20034;-69
2023/07/24 06:25:07;;;;;;;8.02;4.05;;;;;;;20.27;nan;100367.97;5022352;28;20087;-70
2023/07/24 06:27:32;;;;;;;10.35;4.25;;;;;;;20.52;nan;100385.53;5016702;28;20018;-70
2023/07/24 06:29:58;;;;;;;8.57;4.65;;;;;;;20.62;nan;100389.16;5020151;28;20075;-72
2023/07/24 06:32:23;;;;;;;11.23;4.60;;;;;;;20.68;nan;100387.97;5017948;28;20128;-73
2023/07/24 06:34:49;;;;;;;11.80;4.75;;;;;;;20.77;nan;100378.19;5017176;28;20053;-73
2023/07/24 06:37:14;;;;;;;6.57;4.30;;;;;;;20.90;nan;100373.97;5017502;28;20043;-71
2023/07/24 06:39:39;;;;;;;9.32;4.68;;;;;;;21.02;nan;100376.94;5017157;28;20049;-70
2023/07/24 06:42:05;;;;;;;9.30;4.35;;;;;;;21.06;nan;100375.28;5014360;28;20390;-70
2023/07/24 06:44:30;;;;;;;7.88;4.40;;;;;;;21.15;nan;100362.00;5018668;28;20518;-69
2023/07/24 06:46:55;;;;;;;8.40;4.35;;;;;;;21.34;nan;100365.38;5017571;28;20123;-69
2023/07/24 06:49:21;;;;;;;15.95;5.00;;;;;;;21.46;nan;100378.31;5018863;28;20732;-74
2023/07/24 06:51:46;;;;;;;9.23;5.13;;;;;;;21.64;nan;100376.59;5018847;28;20715;-71
2023/07/24 06:54:12;;;;;;;8.45;4.93;;;;;;;21.78;nan;100379.28;5015090;28;20018;-70
2023/07/24 06:56:37;;;;;;;16.83;4.60;;;;;;;21.63;nan;100332.94;5016257;28;20057;-71
2023/07/24 06:59:03;;;;;;;7.88;4.70;;;;;;;22.04;nan;100374.94;5016079;28;20438;-71
2023/07/24 07:01:28;;;;;;;6.30;4.75;;;;;;;22.15;nan;100372.84;5017269;28;20057;-71
2023/07/24 07:03:53;;;;;;;11.73;4.50;;;;;;;22.21;nan;100371.66;5020193;28;20399;-70
2023/07/24 07:06:19;;;;;;;10.27;5.05;;;;;;;22.30;nan;100372.50;5018087;28;20014;-71
2023/07/24 07:08:44;;;;;;;7.00;4.72;;;;;;;22.57;nan;100367.31;5020346;28;20068;-69
2023/07/24 07:11:10;;;;;;;11.75;5.00;;;;;;;22.67;nan;100367.88;5017598;28;20104;-68
2023/07/24 07:13:35;;;;;;;10.93;5.18;;;;;;;22.81;nan;100380.44;5017604;28;20439;-70
2023/07/24 07:16:01;;;;;;;10.90;5.13;;;;;;;22.84;nan;100361.00;5018165;28;20017;-70
2023/07/24 07:18:26;;;;;;;10.38;4.90;;;;;;;22.91;nan;100366.72;5014794;28;20033;-69
2023/07/24 07:20:53;;;;;;;11.48;5.20;;;;;;;23.09;nan;100368.44;5020192;28;20505;-69
2023/07/24 07:23:19;;;;;;;16.15;5.78;;;;;;;23.14;nan;100362.13;5027392;28;20040;-69
2023/07/24 07:25:45;;;;;;;8.98;5.32;;;;;;;23.27;nan;100365.81;5019157;28;20034;-70
2023/07/24 07:28:11;;;;;;;6.80;5.28;;;;;;;23.28;nan;100357.44;5017957;28;20913;-70
2023/07/24 07:30:37;;;;;;;10.30;5.03;;;;;;;23.46;nan;100368.25;5017856;28;20392;-70
2023/07/24 07:33:02;;;;;;;8.50;4.97;;;;;;;23.48;nan;100352.59;5021821;28;20041;-70
2023/07/24 07:35:28;;;;;;;6.53;4.95;;;;;;;23.82;nan;100359.97;5015411;28;20029;-69
2023/07/24 07:37:53;;;;;;;8.30;5.70;;;;;;;23.75;nan;100330.88;5019917;28;20083;-69
2023/07/24 07:40:19;;;;;;;7.70;5.53;;;;;;;23.98;nan;100344.94;5022864;28;20029;-69
2023/07/24 07:42:45;;;;;;;8.02;5.68;;;;;;;24.20;nan;100349.34;5014014;28;20129;-69
2023/07/24 07:45:10;;;;;;;9.43;5.97;;;;;;;24.35;nan;100334.66;5015701;28;20040;-69
2023/07/24 07:47:36;;;;;;;9.82;6.40;;;;;;;24.34;nan;100329.56;5017597;28;20032;-71
2023/07/24 07:50:02;;;;;;;13.23;5.93;;;;;;;24.51;nan;100347.63;5016059;28;20034;-67
2023/07/24 07:52:28;;;;;;;9.55;7.03;;;;;;;24.70;nan;100334.59;5015000;28;20034;-70
2023/07/24 07:54:53;;;;;;;12.10;6.90;;;;;;;24.73;nan;100341.22;5015764;28;20032;-72
2023/07/24 07:57:18;;;;;;;8.80;6.03;;;;;;;24.86;nan;100320.63;5013675;28;20065;-72
2023/07/24 07:59:44;;;;;;;9.23;6.28;;;;;;;24.81;nan;100308.91;5016747;28;20415;-71
2023/07/24 08:02:09;;;;;;;9.95;7.03;;;;;;;25.19;nan;100326.97;5017794;28;20026;-68
2023/07/24 08:04:35;;;;;;;9.18;6.80;;;;;;;25.19;nan;100324.28;5016361;28;20025;-70
2023/07/24 08:07:00;;;;;;;9.25;6.82;;;;;;;25.32;nan;100321.69;5017095;28;20037;-69
2023/07/24 08:09:25;;;;;;;10.48;7.20;;;;;;;25.40;nan;100312.75;5016890;28;20026;-69
2023/07/24 08:11:51;;;;;;;14.20;7.85;;;;;;;25.46;nan;100306.06;5029546;28;20040;-69
2023/07/24 08:14:17;;;;;;;15.05;7.70;;;;;;;25.49;nan;100305.41;5017685;28;20139;-70
2023/07/24 08:16:43;;;;;;;13.48;9.20;;;;;;;25.63;nan;100305.94;5015861;28;20029;-69
2023/07/24 08:19:08;;;;;;;14.48;9.82;;;;;;;25.72;nan;100305.88;5019996;28;20044;-70
2023/07/24 08:21:34;;;;;;;14.15;10.45;;;;;;;25.83;nan;100306.25;5015898;28;20018;-68
2023/07/24 08:24:01;;;;;;;13.80;10.23;;;;;;;25.82;nan;100281.19;5016175;28;20030;-69
2023/07/24 08:26:27;;;;;;;12.27;9.75;;;;;;;26.14;nan;100319.34;5016625;28;20479;-69
2023/07/24 08:28:52;;;;;;;12.57;9.63;;;;;;;26.21;nan;100316.91;5022095;28;20072;-68
2023/07/24 08:31:17;;;;;;;16.33;10.23;;;;;;;26.28;nan;100308.25;5015859;28;20056;-69
2023/07/24 08:33:43;;;;;;;15.35;9.98;;;;;;;26.41;nan;100304.50;5016326;28;20033;-67
2023/07/24 08:36:08;;;;;;;14.25;9.77;;;;;;;26.33;nan;100278.34;5015575;28;20032;-68
2023/07/24 08:38:37;;;;;;;13.00;9.70;;;;;;;26.65;nan;100306.47;5015285;28;20031;-69
2023/07/24 08:41:08;;;;;;;12.95;10.23;;;;;;;26.77;nan;100313.00;5016113;28;20823;-68
2023/07/24 08:43:36;;;;;;;13.98;10.25;;;;;;;26.84;nan;100308.63;5018509;28;20071;-69
2023/07/24 08:46:03;;;;;;;14.48;10.20;;;;;;;26.90;nan;100295.69;5016547;28;20019;-69
2023/07/24 08:48:35;;;;;;;13.15;9.73;;;;;;;26.99;nan;100298.28;5017147;28;20045;-67
2023/07/24 08:51:03;;;;;;;12.75;9.75;;;;;;;27.11;nan;100306.38;5014873;28;20068;-69
2023/07/24 08:53:35;;;;;;;15.48;9.90;;;;;;;27.20;nan;100303.56;5014825;28;20395;-69
2023/07/24 08:56:02;;;;;;;16.38;10.30;;;;;;;27.30;nan;100319.34;5019648;28;20033;-69
2023/07/24 08:58:28;;;;;;;14.77;9.73;;;;;;;27.36;nan;100313.34;5014764;28;20029;-71
2023/07/24 09:00:53;;;;;;;14.00;9.95;;;;;;;27.30;nan;100292.31;5015607;28;20036;-70
2023/07/24 09:03:19;;;;;;;13.38;9.88;;;;;;;27.52;nan;100301.84;5013195;28;20103;-69
2023/07/24 09:05:45;;;;;;;11.90;8.93;;;;;;;27.58;nan;100297.75;5016791;28;20109;-68
2023/07/24 09:08:11;;;;;;;10.60;8.52;;;;;;;27.72;nan;100309.00;5016073;28;20783;-70
2023/07/24 09:10:37;;;;;;;12.27;8.82;;;;;;;27.85;nan;100315.19;5016704;28;20032;-69
2023/07/24 09:13:03;;;;;;;13.18;8.85;;;;;;;27.79;nan;100287.56;5016006;28;20026;-71
2023/07/24 09:15:38;;;;;;;13.80;9.85;;;;;;;27.84;nan;100289.25;5016329;28;20040;-69
2023/07/24 09:18:04;;;;;;;16.40;10.20;;;;;;;28.05;nan;100305.31;5016798;28;20032;-71
2023/07/24 09:20:38;;;;;;;14.63;9.77;;;;;;;28.05;nan;100301.81;5016279;28;20379;-71
2023/07/24 09:23:03;;;;;;;14.80;10.40;;;;;;;27.98;nan;100284.22;5017704;28;20029;-72
2023/07/24 09:25:31;;;;;;;14.02;9.48;;;;;;;28.30;nan;100314.09;5014428;28;20024;-69
2023/07/24 09:27:58;;;;;;;14.20;9.98;;;;;;;28.36;nan;100301.88;5018699;28;20478;-71
2023/07/24 09:30:24;;;;;;;16.52;9.35;;;;;;;28.42;nan;100299.69;5016008;28;20048;-70
2023/07/24 09:32:55;;;;;;;13.13;9.57;;;;;;;28.46;nan;100297.13;5015689;28;20021;-71
2023/07/24 09:35:27;;;;;;;14.80;9.30;;;;;;;28.54;nan;100305.06;5015112;28;20100;-69
2023/07/24 09:38:07;;;;;;;14.05;9.43;;;;;;;28.43;nan;100287.72;5018458;28;20022;-70
2023/07/24 09:40:46;;;;;;;13.57;9.50;;;;;;;28.58;nan;100302.44;5012933;28;20036;-69
2023/07/24 09:43:38;;;;;;;11.55;8.88;;;;;;;28.64;nan;100303.78;5016724;28;20578;-69
2023/07/24 09:46:08;;;;;;;11.93;8.75;;;;;;;28.67;nan;100305.78;5028003;28;20047;-69
2023/07/24 09:48:34;;;;;;;13.65;9.95;;;;;;;28.73;nan;100296.25;5014770;28;20029;-69
2023/07/24 09:51:00;;;;;;;15.85;9.50;;;;;;;28.81;nan;100302.63;5015732;28;20032;-68
2023/07/24 09:53:48;;;;;;;11.15;8.95;;;;;;;28.80;nan;100287.50;5015189;28;20034;-67
2023/07/24 09:56:15;;;;;;;11.45;9.00;;;;;;;28.83;nan;100281.38;5016746;28;20376;-69
2023/07/24 09:58:40;;;;;;;14.15;9.73;;;;;;;28.86;nan;100269.84;5024123;28;20068;-69
2023/07/24 10:01:10;;;;;;;12.18;9.60;;;;;;;28.90;nan;100270.72;5020215;28;20049;-71
2023/07/24 10:03:38;;;;;;;12.52;9.10;;;;;;;28.93;nan;100261.88;5021380;28;20029;-70
2023/07/24 10:06:04;;;;;;;11.85;8.95;;;;;;;29.05;nan;100275.31;5019305;28;20365;-69
2023/07/24 10:08:31;;;;;;;12.55;9.85;;;;;;;29.11;nan;100272.34;5016498;28;20082;-69
2023/07/24 10:10:58;;;;;;;15.25;8.80;;;;;;;29.15;nan;100284.84;5017820;28;20113;-70
2023/07/24 10:13:26;;;;;;;13.25;9.13;;;;;;;29.17;nan;100271.72;5019670;28;20444;-69
2023/07/24 10:15:52;;;;;;;14.32;9.52;;;;;;;29.22;nan;100267.97;5035611;28;20437;-70
2023/07/24 10:18:26;;;;;;;18.90;8.93;;;;;;;29.25;nan;100272.66;5018312;28;20038;-70
2023/07/24 10:21:01;;;;;;;12.70;8.68;;;;;;;29.29;nan;100259.97;5018667;28;20038;-71
2023/07/24 10:23:27;;;;;;;10.05;8.32;;;;;;;29.37;nan;100269.81;5021653;28;20589;-71
2023/07/24 10:25:52;;;;;;;13.25;9.00;;;;;;;29.43;nan;100268.41;5020630;28;20025;-72
2023/07/24 10:28:18;;;;;;;10.75;8.25;;;;;;;29.45;nan;100258.00;5019743;28;20029;-69
2023/07/24 10:30:44;;;;;;;12.52;9.05;;;;;;;29.48;nan;100254.56;5017788;28;20110;-70
2023/07/24 10:33:20;;;;;;;11.15;8.90;;;;;;;29.59;nan;100259.41;5020104;28;20025;-73
2023/07/24 10:36:09;;;;;;;13.35;8.95;;;;;;;29.59;nan;100240.41;5022180;28;20064;-71
2023/07/24 10:38:37;;;;;;;12.68;9.00;;;;;;;29.63;nan;100233.91;5034419;28;20022;-74
2023/07/24 10:41:04;;;;;;;14.00;9.15;;;;;;;29.75;nan;100240.38;5020738;28;20561;-73
2023/07/24 10:43:47;;;;;;;11.50;9.25;;;;;;;29.78;nan;100232.28;5021138;28;20046;-71
2023/07/24 10:46:13;;;;;;;12.75;9.43;;;;;;;29.88;nan;100245.31;5020718;28;20491;-71
2023/07/24 10:48:47;;;;;;;13.32;9.48;;;;;;;29.89;nan;100241.44;5017159;28;20029;-70
2023/07/24 10:51:16;;;;;;;14.18;9.30;;;;;;;29.89;nan;100241.44;5019797;28;20079;-69
2023/07/24 10:53:48;;;;;;;12.52;9.40;;;;;;;29.86;nan;100225.09;5021262;28;20026;-71
2023/07/24 10:56:14;;;;;;;13.13;9.30;;;;;;;29.91;nan;100216.66;5017692;28;20101;-71
2023/07/24 10:58:40;;;;;;;13.57;9.00;;;;;;;30.09;nan;100233.25;5017434;28;20025;-70
2023/07/24 11:01:07;;;;;;;13.38;10.68;;;;;;;30.07;nan;100224.66;5014919;28;20036;-71
2023/07/24 11:03:35;;;;;;;13.38;9.90;;;;;;;30.08;nan;100221.59;5020606;28;20041;-74
2023/07/24 11:06:02;;;;;;;12.82;10.15;;;;;;;30.21;nan;100241.22;5018758;28;20037;-72
2023/07/24 11:08:28;;;;;;;12.57;10.65;;;;;;;30.21;nan;100215.97;5014095;28;20026;-72
2023/07/24 11:10:57;;;;;;;13.63;10.80;;;;;;;30.36;nan;100233.31;5012520;28;20033;-72
2023/07/24 11:13:24;;;;;;;18.35;11.40;;;;;;;30.43;nan;100228.00;5018143;28;20037;-74
2023/07/24 11:15:51;;;;;;;17.42;11.55;;;;;;;30.43;nan;100211.72;5018450;28;20124;-73
2023/07/24 11:18:19;;;;;;;15.05;12.15;;;;;;;30.56;nan;100210.38;5019186;28;20036;-72
2023/07/24 11:20:46;;;;;;;17.02;11.38;;;;;;;30.61;nan;100201.13;5018803;28;20025;-74
2023/07/24 11:23:12;;;;;;;18.67;11.57;;;;;;;30.60;nan;100194.91;5021232;28;20096;-71
2023/07/24 11:25:38;;;;;;;19.60;12.63;;;;;;;30.69;nan;100197.34;5016251;28;20550;-71
2023/07/24 11:28:08;;;;;;;17.48;12.57;;;;;;;30.68;nan;100188.41;5016554;28;20438;-71
2023/07/24 11:30:34;;;;;;;17.02;12.10;;;;;;;30.78;nan;100192.44;5021382;28;20040;-70
2023/07/24 11:33:02;;;;;;;16.88;12.38;;;;;;;30.79;nan;100183.13;5020369;28;20037;-71